EPGD/GDN METAR and TAF weather

Enter ICAO airport designator
Station Type Date Time Source
EPGD METAR 2021/08/02 03:00 UTC NOAA

EPGD 020300Z 25003KT CAVOK 14/13 Q1004


Station Type Date Time Source
EPGD Decoded METAR 2021/08/02 03:00 UTC NOAA

Gdansk-Rebiechowo, Poland (EPGD) 54-23N 018-28E 138M
Aug 01, 2021 - 11:00 PM EDT / 2021.08.02 0300 UTC
Wind: from the WSW (250 degrees) at 3 MPH (3 KT):0
Visibility: greater than 7 mile(s):0
Temperature: 57 F (14 C)
Dew Point: 55 F (13 C)
Relative Humidity: 93%
Pressure (altimeter): 29.65 in. Hg (1004 hPa)
ob: EPGD 020300Z 25003KT CAVOK 14/13 Q1004
cycle: 3

Station Type Date Time Source
EPGD TAF 2021/08/01 18:33 UTC NOAA

TAF TAF EPGD 011730Z 0118/0218 24010KT 9999 SCT020
TEMPO 0118/0120 4000 SHRA BKN014 BKN030CB
BECMG 0118/0120 VRB04KT
TEMPO 0120/0206 4000 BR BKN012 PROB40 0122/0204 0800 FG BKN004
BECMG 0206/0208 27012KT
TEMPO 0208/0210 27015G28KT
TEMPO 0210/0218 27015G28KT -SHRA SCT030CB

Example: see airport list